Time;durP1;ratioP1;P1;durP2;ratioP2;P2;SDS_P1;SDS_P2;PMS_P1;PMS_P2;Temp;Humidity;BMP_temperature;BMP_pressure;BME280_temperature;BME280_humidity;BME280_pressure;Samples;Min_cycle;Max_cycle;Signal;HPM_P1;HPM_P2
2022/07/06 00:01:19;;;;;;;2.67;0.73;;;15.10;99.90;;;;;;5134442;27;20034;-48
2022/07/06 00:03:44;;;;;;;3.58;0.90;;;15.10;99.90;;;;;;5134328;27;20035;-48
2022/07/06 00:06:10;;;;;;;4.65;1.10;;;15.10;99.90;;;;;;5114173;27;20035;-51
2022/07/06 00:08:36;;;;;;;4.30;0.90;;;15.20;99.90;;;;;;5111898;28;20059;-50
2022/07/06 00:11:02;;;;;;;3.58;0.80;;;15.20;99.90;;;;;;5078371;28;20046;-46
2022/07/06 00:13:29;;;;;;;2.10;0.55;;;15.30;99.90;;;;;;5113095;28;20119;-49
2022/07/06 00:15:54;;;;;;;3.28;0.80;;;15.30;99.90;;;;;;5113082;28;20471;-48
2022/07/06 00:18:20;;;;;;;2.88;0.52;;;15.20;99.90;;;;;;5112309;28;20034;-48
2022/07/06 00:20:46;;;;;;;4.38;0.70;;;15.30;99.90;;;;;;5094916;28;20482;-46
2022/07/06 00:23:11;;;;;;;2.22;0.60;;;15.30;99.90;;;;;;5112837;28;20035;-46
2022/07/06 00:25:37;;;;;;;1.98;0.65;;;15.20;99.90;;;;;;5113435;27;20046;-46
2022/07/06 00:28:04;;;;;;;5.13;0.90;;;15.10;99.90;;;;;;5112972;28;20045;-46
2022/07/06 00:30:30;;;;;;;3.05;0.70;;;15.20;99.90;;;;;;5112569;27;20074;-48
2022/07/06 00:32:55;;;;;;;2.58;0.73;;;15.10;99.90;;;;;;5113178;27;20447;-48
2022/07/06 00:35:21;;;;;;;4.32;0.93;;;15.10;99.90;;;;;;5113127;28;20126;-47
2022/07/06 00:37:47;;;;;;;3.75;0.90;;;15.10;99.90;;;;;;5078022;28;20040;-49
2022/07/06 00:40:12;;;;;;;6.13;1.00;;;15.00;99.90;;;;;;5113328;27;20063;-50
2022/07/06 00:42:43;;;;;;;3.17;0.82;;;15.00;99.90;;;;;;5113120;28;20031;-49
2022/07/06 00:45:10;;;;;;;2.47;0.70;;;14.90;99.90;;;;;;5112989;28;20043;-47
2022/07/06 00:47:35;;;;;;;3.42;0.70;;;15.10;99.90;;;;;;5112185;27;20040;-47
2022/07/06 00:50:15;;;;;;;9.00;1.23;;;15.10;99.90;;;;;;5092949;28;20092;-46
2022/07/06 00:52:41;;;;;;;3.53;0.60;;;15.10;99.90;;;;;;5112657;28;20112;-46
2022/07/06 00:55:08;;;;;;;5.85;1.00;;;15.10;99.90;;;;;;5112910;28;20039;-49
2022/07/06 00:57:35;;;;;;;2.08;0.68;;;15.10;99.90;;;;;;5112816;28;20039;-47
2022/07/06 01:00:03;;;;;;;3.42;0.63;;;15.10;99.90;;;;;;5112745;28;20043;-45
2022/07/06 01:02:31;;;;;;;3.25;0.80;;;15.10;99.90;;;;;;5112842;28;20040;-45
2022/07/06 01:04:57;;;;;;;2.38;0.90;;;15.10;99.90;;;;;;5113035;28;20077;-48
2022/07/06 01:07:23;;;;;;;4.90;1.08;;;15.20;99.90;;;;;;5112855;28;20048;-49
2022/07/06 01:09:49;;;;;;;2.58;0.82;;;15.10;99.90;;;;;;5093936;28;20035;-46
2022/07/06 01:12:15;;;;;;;4.53;1.00;;;15.00;99.90;;;;;;5112857;27;20043;-51
2022/07/06 01:14:41;;;;;;;4.20;1.02;;;14.90;99.90;;;;;;5112654;28;20459;-49
2022/07/06 01:17:08;;;;;;;3.42;1.10;;;14.90;99.90;;;;;;5112891;28;20077;-48
2022/07/06 01:19:34;;;;;;;6.38;1.10;;;14.90;99.90;;;;;;5112870;28;20100;-47
2022/07/06 01:21:59;;;;;;;5.88;0.90;;;14.90;99.90;;;;;;5131642;27;20027;-48
2022/07/06 01:24:25;;;;;;;3.63;1.08;;;14.80;99.90;;;;;;5113855;27;20375;-49
2022/07/06 01:26:51;;;;;;;3.03;0.90;;;14.90;99.90;;;;;;5132950;27;20043;-44
2022/07/06 01:29:17;;;;;;;3.30;0.85;;;14.90;99.90;;;;;;5133016;27;20046;-49
2022/07/06 01:31:48;;;;;;;5.00;1.00;;;14.90;99.90;;;;;;5132978;27;20060;-47
2022/07/06 01:34:15;;;;;;;2.78;0.75;;;14.90;99.90;;;;;;5122561;27;20035;-46
2022/07/06 01:36:40;;;;;;;3.63;0.90;;;14.80;99.90;;;;;;5112417;28;20032;-47
2022/07/06 01:39:08;;;;;;;2.70;0.70;;;15.00;99.90;;;;;;5094173;28;20054;-46
2022/07/06 01:41:34;;;;;;;3.00;0.80;;;15.00;99.90;;;;;;5110792;28;20120;-49
2022/07/06 01:44:01;;;;;;;4.07;0.95;;;15.00;99.90;;;;;;5112335;27;20040;-47
2022/07/06 01:46:26;;;;;;;2.15;0.60;;;15.00;99.90;;;;;;5112311;27;20035;-46
2022/07/06 01:48:52;;;;;;;4.65;0.90;;;15.10;99.90;;;;;;5111952;28;20052;-47
2022/07/06 01:51:18;;;;;;;4.80;1.10;;;15.10;99.90;;;;;;5112105;28;20031;-49
2022/07/06 01:53:44;;;;;;;4.05;0.80;;;15.20;99.90;;;;;;5111772;27;20089;-47
2022/07/06 01:56:11;;;;;;;4.22;1.00;;;15.10;99.90;;;;;;5121635;27;20444;-50
2022/07/06 01:58:36;;;;;;;5.47;1.17;;;15.20;99.90;;;;;;5132449;27;20030;-47
2022/07/06 02:01:14;;;;;;;3.30;0.90;;;15.20;99.90;;;;;;5096581;27;20034;-45
2022/07/06 02:03:40;;;;;;;4.03;0.63;;;15.20;99.90;;;;;;5125520;27;20104;-47
2022/07/06 02:06:06;;;;;;;6.15;0.90;;;15.00;99.90;;;;;;5111986;27;20441;-48
2022/07/06 02:08:33;;;;;;;4.40;0.80;;;15.00;99.90;;;;;;5110834;28;20181;-46
2022/07/06 02:10:59;;;;;;;4.97;0.80;;;15.00;99.90;;;;;;5110991;28;20039;-47
2022/07/06 02:13:25;;;;;;;4.85;0.90;;;15.10;99.90;;;;;;5110066;28;20086;-45
2022/07/06 02:15:51;;;;;;;4.30;0.82;;;15.10;99.90;;;;;;5110665;28;20051;-48
2022/07/06 02:18:16;;;;;;;2.90;0.57;;;15.20;99.90;;;;;;5110443;28;20395;-48
2022/07/06 02:20:42;;;;;;;3.72;0.77;;;15.20;99.90;;;;;;5111504;28;20062;-48
2022/07/06 02:23:08;;;;;;;3.30;0.60;;;15.20;99.90;;;;;;5119817;27;20044;-50
2022/07/06 02:25:33;;;;;;;4.32;0.90;;;15.20;99.90;;;;;;5131580;27;20471;-47
2022/07/06 02:27:59;;;;;;;4.07;0.82;;;15.10;99.90;;;;;;5131971;27;20035;-48
2022/07/06 02:30:25;;;;;;;5.30;0.93;;;15.10;99.90;;;;;;5131411;27;20038;-48
2022/07/06 02:32:51;;;;;;;4.65;1.02;;;15.00;99.90;;;;;;5117042;27;20048;-48
2022/07/06 02:35:16;;;;;;;4.47;0.80;;;15.10;99.90;;;;;;5110945;28;20107;-49
2022/07/06 02:37:42;;;;;;;2.97;0.80;;;15.20;99.90;;;;;;5111097;28;20050;-47
2022/07/06 02:40:08;;;;;;;3.45;0.80;;;15.10;99.90;;;;;;5111050;28;20116;-47
2022/07/06 02:42:34;;;;;;;4.10;0.80;;;15.20;99.90;;;;;;5111166;28;20040;-47
2022/07/06 02:45:00;;;;;;;3.78;0.93;;;15.10;99.90;;;;;;5092644;28;20391;-46
2022/07/06 02:47:28;;;;;;;6.05;0.80;;;15.20;99.90;;;;;;5111246;28;20066;-49
2022/07/06 02:49:54;;;;;;;5.30;0.90;;;15.30;99.90;;;;;;5110798;28;20036;-48
2022/07/06 02:52:20;;;;;;;3.00;0.75;;;15.20;99.90;;;;;;5092447;28;20114;-47
2022/07/06 02:54:45;;;;;;;5.35;0.77;;;15.20;99.90;;;;;;5110617;28;20044;-49
2022/07/06 02:57:11;;;;;;;5.40;0.88;;;15.30;99.90;;;;;;5092668;28;20035;-47
2022/07/06 02:59:37;;;;;;;4.38;1.00;;;15.20;99.90;;;;;;5111031;28;20044;-50
2022/07/06 03:02:06;;;;;;;4.60;0.80;;;15.20;99.90;;;;;;5110825;28;20708;-50
2022/07/06 03:04:32;;;;;;;4.25;0.95;;;15.20;99.90;;;;;;5092356;28;20058;-47
2022/07/06 03:06:58;;;;;;;2.65;0.73;;;15.10;99.90;;;;;;5110554;28;20058;-49
2022/07/06 03:09:24;;;;;;;5.25;0.85;;;15.00;99.90;;;;;;5110739;28;20122;-50
2022/07/06 03:11:49;;;;;;;3.92;0.82;;;15.00;99.90;;;;;;5112835;28;20047;-48
2022/07/06 03:14:15;;;;;;;1.92;0.70;;;15.00;99.90;;;;;;5114985;28;20038;-47
2022/07/06 03:16:41;;;;;;;3.85;0.73;;;14.90;99.90;;;;;;5115120;28;20044;-49
2022/07/06 03:19:07;;;;;;;1.77;0.70;;;15.00;99.90;;;;;;5096894;28;20035;-50
2022/07/06 03:21:32;;;;;;;4.22;0.73;;;15.00;99.90;;;;;;5114686;27;20510;-47
2022/07/06 03:23:58;;;;;;;5.43;0.82;;;15.00;99.90;;;;;;5095923;28;20050;-48
2022/07/06 03:26:24;;;;;;;8.35;0.90;;;15.00;99.90;;;;;;5114454;27;20032;-46
2022/07/06 03:28:49;;;;;;;4.68;0.88;;;15.10;99.90;;;;;;5096217;28;20047;-48
2022/07/06 03:31:15;;;;;;;5.93;1.42;;;15.00;99.90;;;;;;5114272;28;20051;-47
2022/07/06 03:33:41;;;;;;;3.83;0.60;;;15.00;99.90;;;;;;5113194;28;20119;-45
2022/07/06 03:36:07;;;;;;;3.00;0.65;;;15.10;99.90;;;;;;5114463;28;20031;-49
2022/07/06 03:38:33;;;;;;;4.97;0.88;;;15.00;99.90;;;;;;5114460;28;20039;-48
2022/07/06 03:40:59;;;;;;;2.92;0.60;;;15.00;99.90;;;;;;5114644;27;20036;-48
2022/07/06 03:43:25;;;;;;;3.63;0.90;;;15.00;99.90;;;;;;5114657;28;20492;-46
2022/07/06 03:45:51;;;;;;;3.45;0.70;;;15.00;99.90;;;;;;5114512;28;20032;-48
2022/07/06 03:48:16;;;;;;;3.47;0.70;;;15.00;99.90;;;;;;5114608;28;20044;-47
2022/07/06 03:50:42;;;;;;;7.80;1.00;;;14.90;99.90;;;;;;5113955;27;20754;-46
2022/07/06 03:53:08;;;;;;;2.97;0.70;;;14.80;99.90;;;;;;5114508;27;20039;-49
2022/07/06 03:55:33;;;;;;;3.15;0.80;;;14.80;99.90;;;;;;5132275;27;20054;-49
2022/07/06 03:57:59;;;;;;;4.72;0.80;;;14.80;99.90;;;;;;5134688;27;20387;-49
2022/07/06 04:00:25;;;;;;;3.47;0.70;;;14.70;99.90;;;;;;5134660;27;20058;-47
2022/07/06 04:02:50;;;;;;;5.30;0.80;;;14.70;99.90;;;;;;5134054;27;20065;-46
2022/07/06 04:05:20;;;;;;;4.72;0.98;;;14.60;99.90;;;;;;5129941;27;20131;-46
2022/07/06 04:07:48;;;;;;;4.93;1.05;;;14.60;99.90;;;;;;5117988;27;20104;-46
2022/07/06 04:10:14;;;;;;;3.50;0.82;;;14.60;99.90;;;;;;5134086;27;20031;-48
2022/07/06 04:12:44;;;;;;;4.50;0.80;;;14.60;99.90;;;;;;5127042;27;20638;-50
2022/07/06 04:15:10;;;;;;;4.30;0.80;;;14.50;99.90;;;;;;5113937;28;20397;-47
2022/07/06 04:17:51;;;;;;;5.25;1.02;;;14.50;99.90;;;;;;5125228;27;20046;-46
2022/07/06 04:20:17;;;;;;;7.18;0.98;;;14.40;99.90;;;;;;5113824;27;20484;-47
2022/07/06 04:22:43;;;;;;;5.40;1.10;;;14.40;99.90;;;;;;5112698;28;20126;-49
2022/07/06 04:25:09;;;;;;;3.63;0.85;;;14.40;99.90;;;;;;5113363;28;20444;-49
2022/07/06 04:27:34;;;;;;;6.22;0.90;;;14.40;99.90;;;;;;5107262;27;20506;-51
2022/07/06 04:30:00;;;;;;;3.60;1.02;;;14.40;99.90;;;;;;5120463;27;20124;-49
2022/07/06 04:32:26;;;;;;;3.83;0.90;;;14.50;99.90;;;;;;5113562;28;20491;-48
2022/07/06 04:34:52;;;;;;;4.15;0.70;;;14.50;99.90;;;;;;5113340;28;20039;-48
2022/07/06 04:37:18;;;;;;;4.65;0.90;;;14.60;99.90;;;;;;5113130;28;20039;-49
2022/07/06 04:39:43;;;;;;;3.38;0.73;;;14.60;99.90;;;;;;5095277;28;20097;-50
2022/07/06 04:42:09;;;;;;;3.00;0.80;;;14.70;99.90;;;;;;5112858;28;20059;-49
2022/07/06 04:44:34;;;;;;;7.00;0.90;;;14.80;99.90;;;;;;5113473;28;20038;-48
2022/07/06 04:47:00;;;;;;;4.63;0.85;;;14.90;99.90;;;;;;5113235;28;20040;-50
2022/07/06 04:49:26;;;;;;;4.05;0.80;;;14.80;99.90;;;;;;5123549;27;20462;-47
2022/07/06 04:51:51;;;;;;;4.63;0.98;;;14.80;99.90;;;;;;5111894;28;20423;-47
2022/07/06 04:54:17;;;;;;;3.70;0.82;;;14.80;99.90;;;;;;5115293;27;20501;-49
2022/07/06 04:56:43;;;;;;;5.63;1.05;;;14.80;99.90;;;;;;5114918;27;20042;-47
2022/07/06 04:59:08;;;;;;;5.10;0.98;;;14.90;99.90;;;;;;5133690;27;20043;-49
2022/07/06 05:01:34;;;;;;;4.82;0.80;;;14.90;99.90;;;;;;5133294;27;20046;-52
2022/07/06 05:04:00;;;;;;;2.58;0.93;;;14.80;99.90;;;;;;5133536;27;20050;-49
2022/07/06 05:06:25;;;;;;;5.95;1.25;;;14.80;99.90;;;;;;5133218;27;20091;-51
2022/07/06 05:08:51;;;;;;;3.13;1.00;;;14.80;99.90;;;;;;5113161;27;20052;-50
2022/07/06 05:11:17;;;;;;;3.65;0.80;;;14.80;99.90;;;;;;5112610;28;20075;-50
2022/07/06 05:13:42;;;;;;;5.68;1.13;;;14.80;99.90;;;;;;5112941;28;20505;-48
2022/07/06 05:16:08;;;;;;;4.90;1.10;;;14.70;99.90;;;;;;5112538;28;20036;-50
2022/07/06 05:18:34;;;;;;;4.18;1.33;;;14.80;99.90;;;;;;5112507;27;20040;-51
2022/07/06 05:21:00;;;;;;;4.97;0.93;;;14.80;99.90;;;;;;5112362;28;20032;-49
2022/07/06 05:23:26;;;;;;;4.60;1.30;;;14.80;99.90;;;;;;5130400;27;20100;-50
2022/07/06 05:25:52;;;;;;;4.50;0.88;;;14.90;99.90;;;;;;5133006;27;20417;-48
2022/07/06 05:28:18;;;;;;;4.55;1.02;;;15.00;99.90;;;;;;5132922;27;20035;-50
2022/07/06 05:30:43;;;;;;;4.63;1.15;;;15.00;99.90;;;;;;5132811;27;20046;-48
2022/07/06 05:33:09;;;;;;;3.53;0.90;;;15.00;99.90;;;;;;5132922;27;20454;-51
2022/07/06 05:35:35;;;;;;;4.65;0.80;;;15.10;99.90;;;;;;5113005;27;20040;-48
2022/07/06 05:38:00;;;;;;;4.53;0.80;;;15.10;99.90;;;;;;5112018;27;20097;-47
2022/07/06 05:40:26;;;;;;;3.67;0.98;;;15.30;99.90;;;;;;5112126;28;20039;-47
2022/07/06 05:42:51;;;;;;;5.22;0.98;;;15.30;99.90;;;;;;5111923;28;20055;-46
2022/07/06 05:45:17;;;;;;;4.88;0.90;;;15.40;99.90;;;;;;5111785;28;20067;-48
2022/07/06 05:50:27;;;;;;;5.55;0.95;;;15.50;99.90;;;;;;5111742;28;20031;-45
2022/07/06 05:52:58;;;;;;;5.57;1.20;;;15.60;99.90;;;;;;5111457;28;20040;-47
2022/07/06 05:55:24;;;;;;;2.30;0.50;;;15.70;99.90;;;;;;5093331;28;20144;-50
2022/07/06 05:57:50;;;;;;;2.30;0.70;;;15.80;99.90;;;;;;5111870;28;20510;-50
2022/07/06 06:00:16;;;;;;;6.47;0.80;;;15.80;99.90;;;;;;5093929;28;20119;-48
2022/07/06 06:02:43;;;;;;;5.32;0.68;;;15.90;99.90;;;;;;5111837;28;20351;-49
2022/07/06 06:05:10;;;;;;;6.63;0.68;;;15.80;99.90;;;;;;5111644;28;20485;-49
2022/07/06 06:07:37;;;;;;;8.43;1.23;;;16.00;99.90;;;;;;5092869;28;20068;-46
2022/07/06 06:10:05;;;;;;;3.30;0.68;;;16.10;99.90;;;;;;5093280;28;20050;-51
2022/07/06 06:12:31;;;;;;;3.67;0.57;;;16.10;99.90;;;;;;5110535;28;20474;-48
2022/07/06 06:14:57;;;;;;;5.28;0.52;;;16.10;99.90;;;;;;5111521;28;20047;-51
2022/07/06 06:17:22;;;;;;;3.55;0.80;;;15.90;99.90;;;;;;5111137;28;20076;-51
2022/07/06 06:19:48;;;;;;;3.67;0.70;;;16.10;99.90;;;;;;5111527;28;20039;-50
2022/07/06 06:22:14;;;;;;;3.55;0.55;;;16.00;99.90;;;;;;5111452;28;20042;-50
2022/07/06 06:24:40;;;;;;;4.05;0.80;;;16.20;99.90;;;;;;5092690;28;20039;-49
2022/07/06 06:27:06;;;;;;;3.55;0.50;;;16.20;99.90;;;;;;5111611;27;20527;-49
2022/07/06 06:29:32;;;;;;;6.20;0.75;;;16.20;99.90;;;;;;5111335;28;20509;-48
2022/07/06 06:31:58;;;;;;;5.03;0.50;;;16.20;99.90;;;;;;5111414;28;20035;-50
2022/07/06 06:34:23;;;;;;;4.65;0.80;;;16.20;99.90;;;;;;5111332;28;20074;-51
2022/07/06 06:36:49;;;;;;;4.50;0.82;;;16.20;99.90;;;;;;5092675;28;20055;-46
2022/07/06 06:39:15;;;;;;;2.22;0.52;;;16.20;99.90;;;;;;5111337;28;20474;-50
2022/07/06 06:41:41;;;;;;;3.50;0.60;;;16.30;99.90;;;;;;5111092;28;20074;-48
2022/07/06 06:44:06;;;;;;;2.35;0.50;;;16.20;99.90;;;;;;5111065;27;20097;-49
2022/07/06 06:46:32;;;;;;;4.00;0.73;;;16.20;99.90;;;;;;5110652;28;20035;-46
2022/07/06 06:48:58;;;;;;;4.55;0.75;;;16.00;99.90;;;;;;5111115;28;20054;-49
2022/07/06 06:51:23;;;;;;;3.80;0.60;;;16.00;99.90;;;;;;5111069;28;20101;-50
2022/07/06 06:53:49;;;;;;;2.60;0.50;;;16.00;99.90;;;;;;5110654;28;20082;-49
2022/07/06 06:56:15;;;;;;;5.47;0.60;;;16.00;99.90;;;;;;5110781;28;20409;-50
2022/07/06 06:58:41;;;;;;;4.18;0.77;;;16.10;99.90;;;;;;5111155;28;20093;-47
2022/07/06 07:01:06;;;;;;;3.95;0.50;;;16.20;99.90;;;;;;5107952;28;20039;-49
2022/07/06 07:03:32;;;;;;;2.88;0.40;;;16.20;99.90;;;;;;5109832;28;20043;-48
2022/07/06 07:05:58;;;;;;;2.17;0.43;;;16.30;99.90;;;;;;5092246;28;20144;-50
2022/07/06 07:08:24;;;;;;;4.75;0.50;;;16.30;99.90;;;;;;5110058;28;20054;-48
2022/07/06 07:10:49;;;;;;;3.55;0.73;;;16.20;99.90;;;;;;5105478;28;20482;-51
2022/07/06 07:13:15;;;;;;;3.15;0.60;;;16.40;99.90;;;;;;5088386;28;20451;-51
2022/07/06 07:15:41;;;;;;;2.75;0.60;;;16.60;99.90;;;;;;5109985;28;20039;-49
2022/07/06 07:18:06;;;;;;;1.27;0.40;;;16.60;99.90;;;;;;5090968;28;20144;-48
2022/07/06 07:20:33;;;;;;;2.40;0.47;;;16.70;99.90;;;;;;5112028;28;20050;-49
2022/07/06 07:23:00;;;;;;;3.88;0.52;;;16.60;99.90;;;;;;5106981;28;20047;-49
2022/07/06 07:25:26;;;;;;;2.78;0.40;;;16.60;99.90;;;;;;5090613;28;20062;-48
2022/07/06 07:27:53;;;;;;;3.72;0.50;;;16.90;99.90;;;;;;5109359;28;20501;-48
2022/07/06 07:30:18;;;;;;;5.75;0.68;;;16.90;99.90;;;;;;5109576;28;20031;-50
2022/07/06 07:32:44;;;;;;;2.42;0.50;;;17.00;99.90;;;;;;5129141;28;20485;-48
2022/07/06 07:35:10;;;;;;;2.30;0.90;;;16.90;99.90;;;;;;5094931;28;20084;-48
2022/07/06 07:37:36;;;;;;;2.45;0.68;;;17.10;99.90;;;;;;5129578;28;20128;-47
2022/07/06 07:40:02;;;;;;;5.47;0.50;;;17.10;99.90;;;;;;5125184;28;20114;-50
2022/07/06 07:42:28;;;;;;;3.22;0.43;;;17.20;99.90;;;;;;5108848;28;20039;-47
2022/07/06 07:44:53;;;;;;;1.80;0.35;;;17.20;99.90;;;;;;5109404;28;20042;-47
2022/07/06 07:47:19;;;;;;;2.45;0.57;;;17.20;99.90;;;;;;5109067;28;20039;-47
2022/07/06 07:49:45;;;;;;;2.22;0.30;;;17.20;99.90;;;;;;5109514;28;20146;-50
2022/07/06 07:52:11;;;;;;;4.00;0.60;;;17.10;99.90;;;;;;5108409;28;20028;-47
2022/07/06 07:54:36;;;;;;;3.10;0.50;;;17.00;99.90;;;;;;5108554;28;20043;-50
2022/07/06 07:57:03;;;;;;;3.42;0.60;;;17.20;99.90;;;;;;5090792;28;20035;-47
2022/07/06 07:59:28;;;;;;;1.38;0.40;;;17.50;99.90;;;;;;5093431;28;20191;-50
2022/07/06 08:01:54;;;;;;;3.53;0.45;;;17.30;99.90;;;;;;5112512;28;20297;-46
2022/07/06 08:04:20;;;;;;;3.33;0.60;;;17.00;99.90;;;;;;5111736;28;20032;-49
2022/07/06 08:06:47;;;;;;;3.60;0.65;;;16.80;99.90;;;;;;5112194;28;20062;-49
2022/07/06 08:09:13;;;;;;;2.58;0.50;;;16.90;99.90;;;;;;5112972;27;20047;-50
2022/07/06 08:11:38;;;;;;;3.95;0.60;;;17.00;99.90;;;;;;5113084;27;20047;-50
2022/07/06 08:14:04;;;;;;;2.65;0.60;;;17.10;99.90;;;;;;5111849;28;20043;-49
2022/07/06 08:16:31;;;;;;;3.03;0.43;;;17.00;99.90;;;;;;5111776;27;20475;-48
2022/07/06 08:18:57;;;;;;;2.15;0.45;;;17.00;99.90;;;;;;5093233;28;20498;-50
2022/07/06 08:21:23;;;;;;;6.05;0.55;;;17.00;99.90;;;;;;5111503;28;20088;-51
2022/07/06 08:23:49;;;;;;;3.72;0.43;;;17.20;99.90;;;;;;5112155;27;20093;-49
2022/07/06 08:26:15;;;;;;;1.50;0.50;;;17.30;99.90;;;;;;5111471;28;20100;-49
2022/07/06 08:28:40;;;;;;;1.40;0.40;;;17.60;99.90;;;;;;5111507;27;20032;-49
2022/07/06 08:31:06;;;;;;;3.08;0.55;;;17.70;99.90;;;;;;5111531;28;20097;-48
2022/07/06 08:33:32;;;;;;;2.28;0.40;;;17.60;99.90;;;;;;5111533;28;20039;-48
2022/07/06 08:35:58;;;;;;;2.85;0.57;;;17.60;99.90;;;;;;5111230;27;20036;-45
2022/07/06 08:38:24;;;;;;;1.88;0.30;;;17.70;99.90;;;;;;5111235;28;20077;-47
2022/07/06 08:40:51;;;;;;;2.85;0.38;;;17.60;99.90;;;;;;5111230;27;20040;-47
2022/07/06 08:43:17;;;;;;;4.43;0.40;;;17.60;99.90;;;;;;5111677;28;20459;-50
2022/07/06 08:45:44;;;;;;;1.45;0.32;;;17.60;99.90;;;;;;5111654;27;20055;-47
2022/07/06 08:48:11;;;;;;;2.25;0.55;;;17.90;99.90;;;;;;5111048;28;20107;-50
2022/07/06 08:50:38;;;;;;;1.67;0.32;;;18.00;99.90;;;;;;5110784;28;20055;-50
2022/07/06 08:53:04;;;;;;;1.90;0.35;;;17.90;99.90;;;;;;5107014;28;20047;-49
2022/07/06 08:55:31;;;;;;;1.83;0.52;;;18.00;99.90;;;;;;5109828;28;20072;-50
2022/07/06 08:57:57;;;;;;;3.25;0.43;;;18.40;99.90;;;;;;5110851;28;20051;-52
2022/07/06 09:00:27;;;;;;;2.30;0.50;;;18.50;99.90;;;;;;5110831;27;20048;-49
2022/07/06 09:02:56;;;;;;;2.15;0.40;;;18.60;99.90;;;;;;5092180;28;20036;-49
2022/07/06 09:05:23;;;;;;;1.77;0.40;;;18.70;99.90;;;;;;5110717;28;20039;-48
2022/07/06 09:07:50;;;;;;;1.40;0.30;;;18.40;99.90;;;;;;5074883;28;20043;-48
2022/07/06 09:10:21;;;;;;;2.85;0.40;;;18.40;99.90;;;;;;5110681;28;20045;-48
2022/07/06 09:12:48;;;;;;;1.65;0.40;;;18.40;99.90;;;;;;5108977;28;20053;-48
2022/07/06 09:15:14;;;;;;;1.63;0.28;;;18.40;99.90;;;;;;5111306;28;20108;-49
2022/07/06 09:17:41;;;;;;;3.25;0.57;;;18.50;99.90;;;;;;5122854;27;20051;-47
2022/07/06 09:20:12;;;;;;;2.90;0.40;;;18.60;99.90;;;;;;5111432;28;20416;-50
2022/07/06 09:22:39;;;;;;;2.70;0.60;;;18.90;99.90;;;;;;5090186;28;20035;-50
2022/07/06 09:25:06;;;;;;;3.47;0.50;;;19.40;99.90;;;;;;5110685;28;20039;-47
2022/07/06 09:27:38;;;;;;;2.20;0.40;;;19.70;99.90;;;;;;5092674;28;20153;-49
2022/07/06 09:30:04;;;;;;;1.38;0.50;;;20.00;99.90;;;;;;5112420;28;20106;-51
2022/07/06 09:32:31;;;;;;;2.08;0.30;;;20.20;99.90;;;;;;5112227;28;20032;-49
2022/07/06 09:34:56;;;;;;;4.80;0.60;;;20.60;99.90;;;;;;5112633;28;20092;-48
2022/07/06 09:37:25;;;;;;;4.38;0.65;;;20.50;99.90;;;;;;5112457;28;20071;-49
2022/07/06 09:39:51;;;;;;;3.88;0.50;;;19.60;99.90;;;;;;5112132;28;20074;-49
2022/07/06 09:42:24;;;;;;;1.17;0.30;;;19.30;99.90;;;;;;5112234;28;20055;-49
2022/07/06 09:44:50;;;;;;;1.73;0.40;;;18.80;99.90;;;;;;5112234;28;20047;-49
2022/07/06 09:47:17;;;;;;;4.40;0.60;;;18.70;99.90;;;;;;5115002;27;20047;-50
2022/07/06 09:49:45;;;;;;;4.03;0.57;;;18.60;99.90;;;;;;5111114;28;20148;-49
2022/07/06 09:52:11;;;;;;;2.38;0.40;;;18.50;99.90;;;;;;5112279;28;20085;-50
2022/07/06 09:54:38;;;;;;;2.42;0.40;;;18.70;99.90;;;;;;5111676;28;20079;-51
2022/07/06 09:57:05;;;;;;;1.75;0.38;;;19.20;99.90;;;;;;5112090;28;20431;-48
2022/07/06 09:59:32;;;;;;;2.22;0.55;;;19.30;99.90;;;;;;5111796;28;20035;-48
2022/07/06 10:02:01;;;;;;;1.33;0.32;;;19.40;99.90;;;;;;5112230;28;20038;-48
2022/07/06 10:04:28;;;;;;;1.85;0.35;;;19.30;99.90;;;;;;5111859;28;20039;-48
2022/07/06 10:06:55;;;;;;;3.92;0.60;;;19.20;99.90;;;;;;5111602;27;20047;-50
2022/07/06 10:09:22;;;;;;;3.22;0.50;;;19.20;99.90;;;;;;5112007;28;20044;-47
2022/07/06 10:12:02;;;;;;;3.92;0.63;;;19.20;99.90;;;;;;5111513;28;20070;-50
2022/07/06 10:14:30;;;;;;;4.30;0.32;;;19.40;99.90;;;;;;5106758;28;20043;-49
2022/07/06 10:17:01;;;;;;;3.40;0.40;;;19.60;99.90;;;;;;5100963;28;21896;-52
2022/07/06 10:19:28;;;;;;;1.30;0.30;;;20.10;99.90;;;;;;5107530;28;20054;-47
2022/07/06 10:21:58;;;;;;;1.52;0.30;;;20.00;99.90;;;;;;5104271;28;20051;-49
2022/07/06 10:24:24;;;;;;;3.78;0.50;;;20.10;99.90;;;;;;5068924;28;20036;-52
2022/07/06 10:26:50;;;;;;;0.95;0.30;;;19.90;99.90;;;;;;5088037;28;20097;-48
2022/07/06 10:29:16;;;;;;;3.50;0.40;;;20.00;99.90;;;;;;5094984;27;20043;-49
2022/07/06 10:31:47;;;;;;;6.30;1.40;;;20.10;99.90;;;;;;5104130;28;20096;-52
2022/07/06 10:34:15;;;;;;;2.15;0.32;;;20.20;99.90;;;;;;5102450;28;20078;-51
2022/07/06 10:36:43;;;;;;;2.15;0.30;;;20.10;99.90;;;;;;5105804;28;20070;-49
2022/07/06 10:41:55;;;;;;;1.52;0.22;;;20.50;99.90;;;;;;5103409;28;20039;-48
2022/07/06 10:44:26;;;;;;;3.08;0.55;;;20.60;99.90;;;;;;5102549;28;20436;-48
2022/07/06 10:46:58;;;;;;;2.40;0.30;;;20.90;99.90;;;;;;5105121;28;20044;-48
2022/07/06 10:49:26;;;;;;;0.90;0.30;;;20.50;99.30;;;;;;5098667;28;20082;-50
2022/07/06 10:51:52;;;;;;;2.72;0.50;;;20.60;99.80;;;;;;5086986;28;20040;-47
2022/07/06 10:54:19;;;;;;;2.58;0.32;;;20.50;99.20;;;;;;5101274;28;20097;-51
2022/07/06 10:56:48;;;;;;;2.08;0.40;;;20.60;99.60;;;;;;5104241;28;20526;-49
2022/07/06 10:59:21;;;;;;;2.65;0.60;;;20.80;99.00;;;;;;5102053;28;20044;-49
2022/07/06 11:02:13;;;;;;;2.40;0.38;;;21.00;98.00;;;;;;5101568;28;20149;-49
2022/07/06 11:04:40;;;;;;;2.30;0.30;;;20.70;97.60;;;;;;5106863;28;20027;-50
2022/07/06 11:07:14;;;;;;;3.47;0.40;;;20.70;99.40;;;;;;5103217;28;20093;-52
2022/07/06 11:09:47;;;;;;;6.22;0.68;;;20.60;99.80;;;;;;5103890;28;20035;-49
2022/07/06 11:12:20;;;;;;;1.73;0.33;;;20.60;99.30;;;;;;5107635;28;20177;-51
2022/07/06 11:14:51;;;;;;;1.10;0.30;;;20.70;99.90;;;;;;5109256;28;20047;-51
2022/07/06 11:17:17;;;;;;;1.15;0.30;;;21.00;99.10;;;;;;5110555;28;20068;-49
2022/07/06 11:19:53;;;;;;;2.15;0.77;;;20.80;99.60;;;;;;5091484;28;20492;-49
2022/07/06 11:22:19;;;;;;;1.80;0.40;;;21.00;98.80;;;;;;5109500;28;21481;-50
2022/07/06 11:24:46;;;;;;;3.38;0.60;;;21.50;98.60;;;;;;5109837;28;20035;-52
2022/07/06 11:27:12;;;;;;;2.58;0.50;;;21.20;98.00;;;;;;5110761;28;20040;-52
2022/07/06 11:29:39;;;;;;;1.92;0.25;;;21.30;97.70;;;;;;5110754;28;20103;-50
2022/07/06 11:32:09;;;;;;;1.20;0.32;;;21.40;97.60;;;;;;5092636;28;20544;-50
2022/07/06 11:34:38;;;;;;;5.00;0.45;;;21.50;97.00;;;;;;5114566;27;20516;-49
2022/07/06 11:37:15;;;;;;;2.05;0.30;;;21.50;97.30;;;;;;5121554;27;20042;-51
2022/07/06 11:39:43;;;;;;;1.45;0.30;;;21.60;97.10;;;;;;5135286;27;20039;-52
2022/07/06 11:42:10;;;;;;;2.92;0.40;;;21.60;96.80;;;;;;5105088;28;20031;-53
2022/07/06 11:44:37;;;;;;;2.58;0.60;;;22.00;96.20;;;;;;5114392;28;20043;-53
2022/07/06 11:47:04;;;;;;;2.58;0.60;;;21.80;94.90;;;;;;5132113;27;20356;-50
2022/07/06 11:49:31;;;;;;;2.83;0.50;;;22.00;95.00;;;;;;5120335;27;20457;-50
2022/07/06 11:51:57;;;;;;;1.65;0.30;;;22.10;95.00;;;;;;5114201;28;20054;-51
2022/07/06 11:54:24;;;;;;;2.00;0.40;;;22.30;96.00;;;;;;5114337;28;20035;-49
2022/07/06 11:56:59;;;;;;;4.05;0.30;;;22.10;95.40;;;;;;5114646;28;20043;-52
2022/07/06 11:59:33;;;;;;;2.05;0.40;;;22.50;95.60;;;;;;5114562;27;20067;-51
2022/07/06 12:02:10;;;;;;;3.95;0.60;;;22.30;95.30;;;;;;5114388;28;20449;-52
2022/07/06 12:04:42;;;;;;;2.75;0.38;;;22.20;95.00;;;;;;5114425;28;20896;-53
2022/07/06 12:07:16;;;;;;;3.17;0.47;;;22.40;95.60;;;;;;5113938;28;20059;-53
2022/07/06 12:09:44;;;;;;;1.10;0.25;;;22.80;96.10;;;;;;5113518;28;20552;-53
2022/07/06 12:12:11;;;;;;;3.03;0.60;;;22.90;94.10;;;;;;5114065;28;20035;-53
2022/07/06 12:14:39;;;;;;;2.25;0.50;;;23.20;95.80;;;;;;5113891;28;20455;-52
2022/07/06 12:17:13;;;;;;;2.97;0.57;;;22.50;95.70;;;;;;5113981;28;20031;-53
2022/07/06 12:19:39;;;;;;;6.07;0.90;;;22.10;95.10;;;;;;5113921;28;20058;-52
2022/07/06 12:22:06;;;;;;;3.10;0.40;;;22.40;95.90;;;;;;5114059;28;20032;-49
2022/07/06 12:24:33;;;;;;;2.40;0.52;;;22.40;95.90;;;;;;5132056;27;20035;-51
2022/07/06 12:27:19;;;;;;;2.47;0.40;;;22.50;95.10;;;;;;5114002;28;20100;-52
2022/07/06 12:29:47;;;;;;;2.03;0.30;;;21.90;94.10;;;;;;5113442;28;20070;-53
2022/07/06 12:32:18;;;;;;;2.08;0.28;;;22.40;95.70;;;;;;5095837;28;20412;-50
2022/07/06 12:34:44;;;;;;;1.95;0.40;;;22.90;95.50;;;;;;5113094;28;20038;-50
2022/07/06 12:37:13;;;;;;;1.98;0.40;;;22.80;95.50;;;;;;5112800;27;20040;-52
2022/07/06 12:39:44;;;;;;;3.25;0.57;;;22.80;95.50;;;;;;5120837;27;20114;-51
2022/07/06 12:42:10;;;;;;;5.63;0.75;;;22.70;94.10;;;;;;5113313;27;20039;-52
2022/07/06 12:44:44;;;;;;;2.88;0.47;;;23.00;94.30;;;;;;5113259;27;20450;-52
2022/07/06 12:47:10;;;;;;;2.30;0.30;;;23.40;93.40;;;;;;5113498;28;20402;-52
2022/07/06 12:49:38;;;;;;;1.92;0.40;;;23.50;92.40;;;;;;5113118;28;20044;-48
2022/07/06 12:52:14;;;;;;;7.43;1.45;;;23.40;92.70;;;;;;5113410;28;20024;-50